Tropical Cyclones
[Index]
Main Index Home Page Stock Weather Photos Extreme Storms Discussion Storm News and Storm Chasing Reports Tropical Cyclones / Hurricanes / Typhoons Weather Data and Links Wild Fires / Bushfires Weather Observation Techniques Weather Picture Catalogue Tornado Pictures and Reports Stock Video Footage and DVDs for sale
Season 1962-1963 Tropical Cyclone 196263_38 Track Map
Season 1962-1963 Summaries: [BoM-AU] [JTWC-AU] [JTWC-SIO] [JTWC-SPAC] [JTWC-SH]
<<- Previous TC | BoM 1962-1963 Season | Next TC ->>

click for intensity scale information  Lat/long Grid: Show Hide

 Date Labels: Show Hide

Bureau of Meteorology Tropical Cyclone Data

Name: 196263_38
Number: 379 / 196263_38

23 Jun 1963 05:00 UTC to 03 Jul 1963 23:00 UTC

    date/time    lat    long    hPa   cat  kts
1963-06-23 05   19.0   159.3   1001                     
1963-06-23 11   20.2   159.0   1005                     
1963-06-23 17   20.8   158.6   1004                     
1963-06-23 23   21.3   158.4   1003                     
1963-06-24 05   21.6   158.4   1004                     
1963-06-24 11   22.0   158.4   1005                     
1963-06-24 17   22.4   158.4   1006                     
1963-06-24 23   22.8   158.4   1006                     
1963-06-25 05   23.5   158.6   1006                     
1963-06-25 11   24.3   159.4   1007                     
1963-06-25 17   24.8   160.6   1007                     
1963-06-25 23   25.1   162.0   1005                     
1963-06-26 05   25.8   163.4   1000                     
1963-06-26 11   26.8   163.4   1002                     
1963-06-26 17   27.4   163.0   1001                     
1963-06-26 23   27.8   162.8   1001                     
1963-06-27 05   28.5   163.0   1000                     
1963-06-27 11   29.4   163.6   1000                     
1963-06-27 17   30.0   164.0   1002                     
1963-06-27 23   30.6   164.0   1003                     
1963-06-28 05   30.9   163.8   1004                     
1963-06-28 17   31.1   163.2   1008                     
1963-06-28 23   31.0   162.8   1009                     
1963-06-29 05   30.8   162.3   1008                     
1963-06-29 11   30.5   161.8   1006                     
1963-06-29 17   29.8   161.4   1005                     
1963-06-29 23   29.1   161.4   1003                     
1963-06-30 05   28.7   161.4   1002                     
1963-06-30 11   28.5   161.7   1002                     
1963-06-30 17   28.4   162.0   1002                     
1963-06-30 23   28.7   163.0   1000                     
1963-07-01 05   29.1   164.0    997                     
1963-07-02 05   30.8   167.2    993    1                
1963-07-02 11   31.6   167.4    991    1                
1963-07-02 17   32.5   167.6    988    1                
1963-07-02 23   33.5   167.8    987    1                
1963-07-03 05   34.4   168.1    986    1                
1963-07-03 11   35.2   168.4    988    1                
1963-07-03 17   36.0   168.7    990    1                
1963-07-03 23   36.7   169.1    994    1                
Winds are 10-min average.

Tropical cyclone tracks developed by Michael Bath using data from the Bureau of Meteorology and Google Maps.


[Australian Severe Weather index] [Copyright Notice] [Email Contacts] [Search This Site] [Privacy Policy]
Document: tropical_cyclone_196263_38.htm Updated: 30 May 2013